Time;durP1;ratioP1;P1;durP2;ratioP2;P2;SDS_P1;SDS_P2;PMS_P1;PMS_P2;Temp;Humidity;BMP_temperature;BMP_pressure;BME280_temperature;BME280_humidity;BME280_pressure;Samples;Min_cycle;Max_cycle;Signal;HPM_P1;HPM_P2
2023/01/13 00:01:53;;;;;;;;;;;12.10;99.90;;;;;;5056728;28;19920;-59
2023/01/13 00:04:19;;;;;;;;;;;12.10;99.90;;;;;;5061559;28;20434;-57
2023/01/13 00:06:44;;;;;;;;;;;12.10;99.90;;;;;;5047786;28;19916;-59
2023/01/13 00:09:10;;;;;;;;;;;12.30;99.90;;;;;;5061310;28;20010;-61
2023/01/13 00:11:35;;;;;;;;;;;12.20;99.90;;;;;;5056022;28;19966;-60
2023/01/13 00:14:01;;;;;;;;;;;12.20;99.90;;;;;;5057117;28;19912;-59
2023/01/13 00:16:26;;;;;;;;;;;12.20;99.90;;;;;;5054030;28;19920;-60
2023/01/13 00:18:52;;;;;;;;;;;12.20;99.90;;;;;;5060584;28;20392;-60
2023/01/13 00:21:18;;;;;;;;;;;12.20;99.90;;;;;;5056884;28;20294;-57
2023/01/13 00:23:44;;;;;;;;;;;12.10;99.90;;;;;;5056167;28;19924;-59
2023/01/13 00:26:11;;;;;;;;;;;12.10;99.90;;;;;;5054573;28;19921;-61
2023/01/13 00:28:37;;;;;;;;;;;12.20;99.90;;;;;;5056872;28;19938;-61
2023/01/13 00:31:03;;;;;;;;;;;12.10;99.90;;;;;;5053889;28;20721;-58
2023/01/13 00:33:28;;;;;;;;;;;12.10;99.90;;;;;;5059356;28;19913;-60
2023/01/13 00:35:58;;;;;;;;;;;12.10;99.90;;;;;;5056369;28;20489;-61
2023/01/13 00:38:24;;;;;;;;;;;12.10;99.90;;;;;;5050080;28;20451;-61
2023/01/13 00:40:56;;;;;;;;;;;12.10;99.90;;;;;;5052304;28;20321;-59
2023/01/13 00:43:22;;;;;;;;;;;12.20;99.90;;;;;;5055034;28;19917;-61
2023/01/13 00:45:50;;;;;;;;;;;12.10;99.90;;;;;;5058596;28;19916;-61
2023/01/13 00:48:16;;;;;;;;;;;12.00;99.90;;;;;;5058455;28;19924;-58
2023/01/13 00:50:42;;;;;;;;;;;12.00;99.90;;;;;;5056329;28;19923;-61
2023/01/13 00:53:07;;;;;;;;;;;12.00;99.90;;;;;;5063151;28;20302;-61
2023/01/13 00:55:33;;;;;;;;;;;12.00;99.90;;;;;;5051217;28;19916;-60
2023/01/13 00:58:07;;;;;;;;;;;11.90;99.90;;;;;;5057544;28;19917;-59
2023/01/13 01:00:32;;;;;;;;;;;11.80;99.90;;;;;;5055689;28;20413;-61
2023/01/13 01:02:58;;;;;;;;;;;11.80;99.90;;;;;;5053611;28;20003;-60
2023/01/13 01:05:23;;;;;;;;;;;11.80;99.90;;;;;;5053095;28;19920;-61
2023/01/13 01:07:49;;;;;;;;;;;11.80;99.90;;;;;;5053755;28;19917;-61
2023/01/13 01:10:14;;;;;;;;;;;11.70;99.90;;;;;;5047356;28;20055;-61
2023/01/13 01:12:40;;;;;;;;;;;11.70;99.90;;;;;;5059037;28;19919;-60
2023/01/13 01:15:08;;;;;;;;;;;11.60;99.90;;;;;;5058196;28;19913;-61
2023/01/13 01:17:33;;;;;;;;;;;11.50;99.90;;;;;;5061101;28;19909;-59
2023/01/13 01:19:58;;;;;;;;;;;11.40;99.90;;;;;;5059408;28;20357;-59
2023/01/13 01:22:24;;;;;;;;;;;11.50;99.90;;;;;;5055768;28;19917;-58
2023/01/13 01:24:49;;;;;;;;;;;11.50;99.90;;;;;;5057746;28;19913;-61
2023/01/13 01:27:15;;;;;;;;;;;11.50;99.90;;;;;;5049168;28;19967;-60
2023/01/13 01:29:40;;;;;;;;;;;11.40;99.90;;;;;;5062206;28;19920;-61
2023/01/13 01:32:06;;;;;;;;;;;11.50;99.90;;;;;;5053841;28;19913;-61
2023/01/13 01:34:31;;;;;;;;;;;11.50;99.90;;;;;;5056826;28;19920;-61
2023/01/13 01:36:57;;;;;;;;;;;11.50;99.90;;;;;;5056967;28;19913;-55
2023/01/13 01:39:22;;;;;;;;;;;11.50;99.90;;;;;;5047249;28;20290;-58
2023/01/13 01:44:41;;;;;;;;;;;11.40;99.90;;;;;;5058042;28;20009;-59
2023/01/13 01:47:10;;;;;;;;;;;11.20;99.90;;;;;;5054331;28;19917;-61
2023/01/13 01:49:36;;;;;;;;;;;11.00;99.90;;;;;;5059448;28;19927;-59
2023/01/13 01:52:18;;;;;;;;;;;10.80;99.90;;;;;;5052260;28;19913;-58
2023/01/13 01:54:55;;;;;;;;;;;10.50;99.90;;;;;;5053008;28;20386;-61
2023/01/13 01:57:28;;;;;;;;;;;10.40;99.90;;;;;;5045013;28;19916;-61
2023/01/13 01:59:54;;;;;;;;;;;10.40;99.90;;;;;;5059273;28;20007;-58
2023/01/13 02:02:20;;;;;;;;;;;10.30;99.90;;;;;;5058580;28;20378;-61
2023/01/13 02:04:49;;;;;;;;;;;10.30;99.90;;;;;;5053468;28;19998;-61
2023/01/13 02:07:17;;;;;;;;;;;10.20;99.90;;;;;;5053144;28;19912;-61
2023/01/13 02:09:43;;;;;;;;;;;10.20;99.90;;;;;;5050619;28;19920;-61
2023/01/13 02:14:53;;;;;;;;;;;10.10;99.90;;;;;;5051035;28;19920;-61
2023/01/13 02:17:32;;;;;;;;;;;10.10;99.90;;;;;;5051515;28;20386;-60
2023/01/13 02:20:13;;;;;;;;;;;10.10;99.90;;;;;;5051826;28;20412;-61
2023/01/13 02:22:57;;;;;;;;;;;10.10;99.90;;;;;;5060647;28;19912;-61
2023/01/13 02:25:28;;;;;;;;;;;10.10;99.90;;;;;;5050588;28;19919;-60
2023/01/13 02:28:12;;;;;;;;;;;10.10;99.90;;;;;;5050285;28;19999;-60
2023/01/13 02:33:35;;;;;;;;;;;10.10;99.90;;;;;;5054791;28;19963;-60
2023/01/13 02:36:12;;;;;;;;;;;10.10;99.90;;;;;;5050763;28;19909;-61
2023/01/13 02:38:58;;;;;;;;;;;10.10;99.90;;;;;;5051030;28;19961;-61
2023/01/13 02:44:19;;;;;;;;;;;10.20;99.90;;;;;;5050991;28;19966;-61
2023/01/13 02:46:48;;;;;;;;;;;10.20;99.90;;;;;;5077772;22;19925;-62
2023/01/13 02:49:18;;;;;;;;;;;10.20;99.90;;;;;;5066992;28;19912;-62
2023/01/13 02:51:44;;;;;;;;;;;10.30;99.90;;;;;;5060381;28;20397;-62
2023/01/13 02:54:12;;;;;;;;;;;10.30;99.90;;;;;;5058260;28;19913;-62
2023/01/13 02:56:42;;;;;;;;;;;10.20;99.90;;;;;;5046147;28;20179;-63
2023/01/13 02:59:08;;;;;;;;;;;10.20;99.90;;;;;;5049526;28;20393;-62
2023/01/13 03:01:34;;;;;;;;;;;10.10;99.90;;;;;;5051762;28;19920;-62
2023/01/13 03:04:09;;;;;;;;;;;10.10;99.90;;;;;;5047880;28;20399;-62
2023/01/13 03:06:40;;;;;;;;;;;10.10;99.90;;;;;;5059680;28;19912;-62
2023/01/13 03:09:09;;;;;;;;;;;10.00;99.90;;;;;;5052173;28;20328;-62
2023/01/13 03:11:40;;;;;;;;;;;10.10;99.90;;;;;;5044154;28;19917;-61
2023/01/13 03:14:24;;;;;;;;;;;10.10;99.90;;;;;;5050798;28;20003;-62
2023/01/13 03:17:10;;;;;;;;;;;10.10;99.90;;;;;;5051675;28;19982;-62
2023/01/13 03:19:40;;;;;;;;;;;10.10;99.90;;;;;;5051405;28;20297;-62
2023/01/13 03:22:19;;;;;;;;;;;10.10;99.90;;;;;;5053359;28;19920;-63
2023/01/13 03:24:58;;;;;;;;;;;10.10;99.90;;;;;;5051314;28;19913;-62
2023/01/13 03:27:35;;;;;;;;;;;10.10;99.90;;;;;;5051457;28;20038;-62
2023/01/13 03:30:05;;;;;;;;;;;10.00;99.90;;;;;;5057223;28;19913;-62
2023/01/13 03:32:33;;;;;;;;;;;10.00;99.90;;;;;;5046889;28;19935;-62
2023/01/13 03:35:02;;;;;;;;;;;9.90;99.90;;;;;;5049709;28;19939;-62
2023/01/13 03:37:31;;;;;;;;;;;10.00;99.90;;;;;;5051745;28;19913;-62
2023/01/13 03:39:59;;;;;;;;;;;9.90;99.90;;;;;;5050600;28;19913;-62
2023/01/13 03:42:27;;;;;;;;;;;9.80;99.90;;;;;;5051186;28;19920;-62
2023/01/13 03:44:53;;;;;;;;;;;9.90;99.90;;;;;;5049851;28;19915;-62
2023/01/13 03:47:21;;;;;;;;;;;9.90;99.90;;;;;;5051436;28;19920;-62
2023/01/13 03:49:52;;;;;;;;;;;9.90;99.90;;;;;;5051335;28;20000;-62
2023/01/13 03:52:21;;;;;;;;;;;9.80;99.90;;;;;;5059186;28;19917;-62
2023/01/13 03:54:50;;;;;;;;;;;9.70;99.90;;;;;;5046489;28;19962;-62
2023/01/13 03:57:18;;;;;;;;;;;9.70;99.90;;;;;;5050162;28;19925;-62
2023/01/13 03:59:45;;;;;;;;;;;9.70;99.90;;;;;;5051526;28;20268;-62
2023/01/13 04:02:32;;;;;;;;;;;9.70;99.90;;;;;;5051363;28;19991;-61
2023/01/13 04:04:59;;;;;;;;;;;9.70;99.90;;;;;;5050192;28;19909;-61
2023/01/13 04:07:34;;;;;;;;;;;9.80;99.90;;;;;;5051479;28;19956;-62
2023/01/13 04:10:01;;;;;;;;;;;9.70;99.90;;;;;;5049866;28;20359;-62
2023/01/13 04:12:59;;;;;;;;;;;9.70;99.90;;;;;;5057648;28;20275;-62
2023/01/13 04:15:17;;;;;;;;;;;9.70;99.90;;;;;;5043165;28;19913;-61
2023/01/13 04:17:43;;;;;;;;;;;9.70;99.90;;;;;;5054964;28;19954;-62
2023/01/13 04:20:09;;;;;;;;;;;9.60;99.90;;;;;;5051210;28;19913;-62
2023/01/13 04:22:34;;;;;;;;;;;9.50;99.90;;;;;;5050944;28;19916;-62
2023/01/13 04:24:59;;;;;;;;;;;9.50;99.90;;;;;;5048845;28;19913;-62
2023/01/13 04:27:25;;;;;;;;;;;9.40;99.90;;;;;;5051379;28;19916;-61
2023/01/13 04:29:50;;;;;;;;;;;9.40;99.90;;;;;;5049941;28;19952;-61
2023/01/13 04:32:16;;;;;;;;;;;9.30;99.90;;;;;;5049213;28;19920;-62
2023/01/13 04:34:41;;;;;;;;;;;9.20;99.90;;;;;;5049677;28;19916;-61
2023/01/13 04:37:06;;;;;;;;;;;9.20;99.90;;;;;;5051005;28;19922;-61
2023/01/13 04:39:32;;;;;;;;;;;9.20;99.90;;;;;;5045338;28;19920;-62
2023/01/13 04:41:57;;;;;;;;;;;9.10;99.90;;;;;;5054400;28;20374;-61
2023/01/13 04:44:23;;;;;;;;;;;9.00;99.90;;;;;;5054996;28;20410;-62
2023/01/13 04:46:48;;;;;;;;;;;9.00;99.90;;;;;;5054229;28;19920;-61
2023/01/13 04:49:14;;;;;;;;;;;8.90;99.90;;;;;;5053646;28;19909;-62
2023/01/13 04:51:39;;;;;;;;;;;8.90;99.90;;;;;;5054240;28;19916;-62
2023/01/13 04:54:05;;;;;;;;;;;8.80;99.90;;;;;;5051629;28;19912;-62
2023/01/13 04:56:30;;;;;;;;;;;8.90;99.90;;;;;;5047842;28;20373;-62
2023/01/13 04:58:56;;;;;;;;;;;9.00;99.90;;;;;;5054158;28;20587;-62
2023/01/13 05:01:21;;;;;;;;;;;9.00;99.90;;;;;;5052458;28;19917;-62
2023/01/13 05:03:47;;;;;;;;;;;9.00;99.90;;;;;;5052166;28;19913;-62
2023/01/13 05:06:12;;;;;;;;;;;9.10;99.90;;;;;;5052901;28;20023;-62
2023/01/13 05:08:37;;;;;;;;;;;9.00;99.90;;;;;;5051652;28;19955;-61
2023/01/13 05:16:58;;;;;;;;;;;9.00;99.90;;;;;;5059572;28;19963;-61
2023/01/13 05:19:20;;;;;;;;;;;9.30;99.90;;;;;;5049581;28;19931;-62
2023/01/13 05:25:20;;;;;;;;;;;9.20;99.90;;;;;;5053633;28;20329;-62
2023/01/13 05:27:33;;;;;;;;;;;9.00;99.90;;;;;;5054086;28;19990;-61
2023/01/13 05:29:59;;;;;;;;;;;9.00;99.90;;;;;;5053854;28;19971;-62
2023/01/13 05:32:24;;;;;;;;;;;9.00;99.90;;;;;;5055317;28;20607;-62
2023/01/13 05:34:50;;;;;;;;;;;9.00;99.90;;;;;;5053808;28;19912;-61
2023/01/13 05:37:15;;;;;;;;;;;9.20;99.90;;;;;;5053155;28;19908;-61
2023/01/13 05:45:10;;;;;;;;;;;9.20;99.90;;;;;;5054633;28;19919;-62
2023/01/13 05:47:35;;;;;;;;;;;9.30;99.90;;;;;;5053492;28;19909;-62
2023/01/13 05:50:01;;;;;;;;;;;9.30;99.90;;;;;;5055759;28;20338;-62
2023/01/13 05:52:27;;;;;;;;;;;9.30;99.90;;;;;;5053262;28;20427;-62
2023/01/13 05:54:52;;;;;;;;;;;9.20;99.90;;;;;;5048833;28;20007;-62
2023/01/13 05:57:18;;;;;;;;;;;9.20;99.90;;;;;;5052726;28;19963;-62
2023/01/13 05:59:43;;;;;;;;;;;9.10;99.90;;;;;;5051425;28;19925;-62
2023/01/13 06:02:09;;;;;;;;;;;9.20;99.90;;;;;;5052141;28;19971;-62
2023/01/13 06:04:34;;;;;;;;;;;9.20;99.90;;;;;;5052219;28;19915;-62
2023/01/13 06:07:00;;;;;;;;;;;9.20;99.90;;;;;;5052897;28;19955;-61
2023/01/13 06:09:25;;;;;;;;;;;9.30;99.90;;;;;;5050605;28;19920;-62
2023/01/13 06:11:50;;;;;;;;;;;9.30;99.90;;;;;;5048472;28;19923;-62
2023/01/13 06:14:16;;;;;;;;;;;9.20;99.90;;;;;;5049418;28;19920;-63
2023/01/13 06:16:44;;;;;;;;;;;9.20;99.90;;;;;;5046995;28;20271;-62
2023/01/13 06:19:11;;;;;;;;;;;9.20;99.90;;;;;;5046230;28;19921;-61
2023/01/13 06:21:37;;;;;;;;;;;9.20;99.90;;;;;;5059215;28;19916;-61
2023/01/13 06:24:03;;;;;;;;;;;9.20;99.90;;;;;;5051976;28;19913;-62
2023/01/13 06:26:32;;;;;;;;;;;9.40;99.90;;;;;;5058764;28;20003;-62
2023/01/13 06:28:57;;;;;;;;;;;9.40;99.90;;;;;;5052547;28;19909;-62
2023/01/13 06:31:23;;;;;;;;;;;9.40;99.90;;;;;;5050329;28;19912;-62
2023/01/13 06:33:52;;;;;;;;;;;9.40;99.90;;;;;;5047589;28;20401;-62
2023/01/13 06:36:29;;;;;;;;;;;9.50;99.90;;;;;;5051599;28;20560;-62
2023/01/13 06:38:56;;;;;;;;;;;9.50;99.90;;;;;;5051479;28;19917;-57
2023/01/13 06:43:13;;;;;;;;;;;9.50;99.90;;;;;;5044684;28;19917;-55
2023/01/13 06:44:07;;;;;;;;;;;9.50;99.90;;;;;;5048543;28;19956;-57
2023/01/13 06:46:34;;;;;;;;;;;9.50;99.90;;;;;;5052546;28;20606;-57
2023/01/13 06:49:00;;;;;;;;;;;9.50;99.90;;;;;;5049186;28;19945;-57
2023/01/13 06:51:25;;;;;;;;;;;9.40;99.90;;;;;;5053251;28;19952;-57
2023/01/13 06:53:50;;;;;;;;;;;9.40;99.90;;;;;;5044513;28;19936;-55
2023/01/13 06:56:16;;;;;;;;;;;9.40;99.90;;;;;;5046681;28;19995;-55
2023/01/13 06:58:42;;;;;;;;;;;9.40;99.90;;;;;;5056084;28;19966;-56
2023/01/13 07:01:07;;;;;;;;;;;9.40;99.90;;;;;;5059149;28;19916;-55
2023/01/13 07:03:32;;;;;;;;;;;9.40;99.90;;;;;;5049745;28;19913;-53
2023/01/13 07:05:59;;;;;;;;;;;9.40;99.90;;;;;;5051165;28;19952;-55
2023/01/13 07:08:24;;;;;;;;;;;9.40;99.90;;;;;;5046022;28;20289;-55
2023/01/13 07:10:50;;;;;;;;;;;9.40;99.90;;;;;;5049763;28;19913;-56
2023/01/13 07:16:01;;;;;;;;;;;9.40;99.90;;;;;;5050012;28;19919;-55
2023/01/13 07:18:30;;;;;;;;;;;9.40;99.90;;;;;;5053822;28;19917;-57
2023/01/13 07:20:57;;;;;;;;;;;9.40;99.90;;;;;;5054119;28;20003;-57
2023/01/13 07:23:23;;;;;;;;;;;9.30;99.90;;;;;;5053688;28;19967;-55
2023/01/13 07:25:49;;;;;;;;;;;9.20;99.90;;;;;;5053323;28;19913;-56
2023/01/13 07:28:14;;;;;;;;;;;9.20;99.90;;;;;;5050492;28;19921;-57
2023/01/13 07:30:40;;;;;;;;;;;9.20;99.90;;;;;;5048648;28;19913;-55
2023/01/13 07:33:05;;;;;;;;;;;9.20;99.90;;;;;;5044709;28;19917;-55
2023/01/13 07:35:31;;;;;;;;;;;9.20;99.90;;;;;;5048591;28;19921;-56
2023/01/13 07:37:56;;;;;;;;;;;9.10;99.90;;;;;;5048506;28;19995;-55
2023/01/13 07:40:22;;;;;;;;;;;9.10;99.90;;;;;;5051387;28;19916;-55
2023/01/13 07:45:31;;;;;;;;;;;9.00;99.90;;;;;;5049816;28;19924;-55
2023/01/13 07:47:57;;;;;;;;;;;8.90;99.90;;;;;;5050652;28;19909;-56
2023/01/13 07:50:22;;;;;;;;;;;8.90;99.90;;;;;;5049906;28;20003;-52
2023/01/13 07:52:48;;;;;;;;;;;8.90;99.90;;;;;;5049924;28;19917;-55
2023/01/13 07:55:14;;;;;;;;;;;8.90;99.90;;;;;;5048205;28;19970;-56
2023/01/13 07:57:39;;;;;;;;;;;8.80;99.90;;;;;;5054377;28;19919;-52
2023/01/13 08:00:05;;;;;;;;;;;8.80;99.90;;;;;;5049459;28;19940;-55
2023/01/13 08:02:30;;;;;;;;;;;8.80;99.90;;;;;;5056065;28;19931;-55
2023/01/13 08:04:56;;;;;;;;;;;8.80;99.90;;;;;;5052976;28;19912;-51
2023/01/13 08:07:22;;;;;;;;;;;8.80;99.90;;;;;;5052545;28;19999;-52
2023/01/13 08:09:47;;;;;;;;;;;8.80;99.90;;;;;;5048326;28;19923;-53
2023/01/13 08:14:57;;;;;;;;;;;8.70;99.90;;;;;;5040564;28;19928;-54
2023/01/13 08:17:23;;;;;;;;;;;8.70;99.90;;;;;;5047432;28;20290;-51
2023/01/13 08:19:48;;;;;;;;;;;8.70;99.90;;;;;;5057676;28;19916;-56
2023/01/13 08:22:14;;;;;;;;;;;8.70;99.90;;;;;;5051362;28;19913;-54
2023/01/13 08:24:39;;;;;;;;;;;8.70;99.90;;;;;;5050875;28;19913;-55
2023/01/13 08:27:05;;;;;;;;;;;8.70;99.90;;;;;;5053562;28;19923;-55
2023/01/13 08:29:30;;;;;;;;;;;8.70;99.90;;;;;;5056772;28;19919;-56
2023/01/13 08:31:55;;;;;;;;;;;8.70;99.90;;;;;;5055404;28;20018;-56
2023/01/13 08:34:21;;;;;;;;;;;8.80;99.90;;;;;;5046466;28;19978;-55
2023/01/13 08:36:48;;;;;;;;;;;8.80;99.90;;;;;;5058949;28;19916;-54
2023/01/13 08:39:13;;;;;;;;;;;8.90;99.90;;;;;;5045309;28;19920;-55
2023/01/13 08:41:54;;;;;;;;;;;8.90;99.90;;;;;;5041524;28;19921;-57
2023/01/13 08:44:20;;;;;;;;;;;8.80;99.90;;;;;;5044904;28;19913;-58
2023/01/13 08:46:45;;;;;;;;;;;9.00;99.90;;;;;;5048718;28;19921;-56
2023/01/13 08:49:11;;;;;;;;;;;9.10;99.90;;;;;;5071326;22;19928;-62
2023/01/13 08:51:36;;;;;;;;;;;9.20;99.90;;;;;;5049889;28;19920;-62
2023/01/13 08:54:02;;;;;;;;;;;9.30;99.90;;;;;;5046163;28;19909;-61
2023/01/13 08:56:30;;;;;;;;;;;9.30;99.90;;;;;;5049999;28;20409;-62
2023/01/13 08:58:59;;;;;;;;;;;9.40;99.90;;;;;;5050592;28;20234;-62
2023/01/13 09:01:25;;;;;;;;;;;9.40;99.90;;;;;;5050409;28;19917;-61
2023/01/13 09:03:51;;;;;;;;;;;9.40;99.90;;;;;;5052437;28;19923;-63
2023/01/13 09:06:16;;;;;;;;;;;9.50;99.90;;;;;;5050572;28;20464;-59
2023/01/13 09:08:42;;;;;;;;;;;9.50;99.90;;;;;;5047181;28;19921;-62
2023/01/13 09:14:01;;;;;;;;;;;9.60;99.90;;;;;;5044562;28;20294;-62
2023/01/13 09:16:26;;;;;;;;;;;9.70;99.90;;;;;;5042455;28;19917;-62
2023/01/13 09:18:52;;;;;;;;;;;9.70;99.90;;;;;;5043371;28;19982;-58
2023/01/13 09:21:18;;;;;;;;;;;9.70;99.90;;;;;;5042359;28;19927;-61
2023/01/13 09:23:44;;;;;;;;;;;9.70;99.90;;;;;;5041994;28;20020;-59
2023/01/13 09:26:10;;;;;;;;;;;9.70;99.90;;;;;;5040111;28;20024;-61
2023/01/13 09:28:35;;;;;;;;;;;9.80;99.90;;;;;;5044169;28;19943;-62
2023/01/13 09:31:00;;;;;;;;;;;9.80;99.90;;;;;;5038645;28;19921;-60
2023/01/13 09:36:10;;;;;;;;;;;9.80;99.90;;;;;;5042324;28;19924;-61
2023/01/13 09:38:35;;;;;;;;;;;9.80;99.90;;;;;;5039863;28;19921;-63
2023/01/13 09:43:52;;;;;;;;;;;9.90;99.90;;;;;;5043487;28;19917;-63
2023/01/13 09:43:54;;;;;;;;;;;9.90;99.90;;;;;;5042567;28;20302;-62
2023/01/13 09:49:12;;;;;;;;;;;10.00;99.90;;;;;;5042446;28;19986;-61
2023/01/13 09:51:40;;;;;;;;;;;10.10;99.90;;;;;;5041114;28;20394;-60
2023/01/13 09:54:09;;;;;;;;;;;10.10;99.90;;;;;;5042159;28;19921;-62
2023/01/13 09:56:35;;;;;;;;;;;10.00;99.90;;;;;;5041801;28;20279;-61
2023/01/13 09:59:00;;;;;;;;;;;10.10;99.90;;;;;;5043472;28;19974;-63
2023/01/13 10:01:51;;;;;;;;;;;10.10;99.90;;;;;;5038443;28;20012;-64
2023/01/13 10:04:17;;;;;;;;;;;10.20;99.90;;;;;;5039614;28;19917;-63
2023/01/13 10:06:46;;;;;;;;;;;10.20;99.90;;;;;;5040383;28;19963;-63
2023/01/13 10:09:21;;;;;;;;;;;10.30;99.90;;;;;;5043026;28;19957;-64
2023/01/13 10:14:52;;;;;;;;;;;10.30;99.90;;;;;;5044860;28;19956;-63
2023/01/13 10:17:18;;;;;;;;;;;10.40;99.90;;;;;;5040634;28;19917;-62
2023/01/13 10:19:47;;;;;;;;;;;10.40;99.90;;;;;;5041893;28;19982;-62
2023/01/13 10:22:14;;;;;;;;;;;10.40;99.90;;;;;;5038601;28;19917;-63
2023/01/13 10:24:51;;;;;;;;;;;10.50;99.90;;;;;;5041423;28;19923;-62
2023/01/13 10:27:19;;;;;;;;;;;10.50;99.90;;;;;;5045120;28;21218;-62
2023/01/13 10:29:45;;;;;;;;;;;10.50;99.90;;;;;;5039870;28;19921;-62
2023/01/13 10:32:10;;;;;;;;;;;10.50;99.90;;;;;;5043616;28;19924;-63
2023/01/13 10:34:45;;;;;;;;;;;10.50;99.90;;;;;;5040183;28;21312;-62
2023/01/13 10:37:18;;;;;;;;;;;10.50;99.90;;;;;;5041825;28;20035;-64
2023/01/13 10:39:44;;;;;;;;;;;10.50;99.90;;;;;;5043988;28;19999;-64
2023/01/13 10:42:12;;;;;;;;;;;10.60;99.90;;;;;;5047227;28;19917;-63
2023/01/13 10:44:48;;;;;;;;;;;10.70;99.90;;;;;;5040208;28;20314;-62
2023/01/13 10:47:34;;;;;;;;;;;10.60;99.90;;;;;;5039925;28;19917;-63
2023/01/13 10:49:59;;;;;;;;;;;10.70;99.90;;;;;;5042434;28;20153;-63
2023/01/13 10:52:26;;;;;;;;;;;10.70;99.90;;;;;;5040231;28;20003;-64
2023/01/13 10:54:53;;;;;;;;;;;10.70;99.90;;;;;;5043867;28;19917;-63
2023/01/13 10:57:19;;;;;;;;;;;10.60;99.90;;;;;;5047610;28;20010;-63
2023/01/13 10:59:45;;;;;;;;;;;10.60;99.90;;;;;;5044825;28;20134;-62
2023/01/13 11:02:29;;;;;;;;;;;10.60;99.90;;;;;;5038385;28;19917;-64
2023/01/13 11:04:54;;;;;;;;;;;10.60;99.90;;;;;;5046399;28;19920;-62
2023/01/13 11:07:28;;;;;;;;;;;10.50;99.90;;;;;;5040741;28;19913;-64
2023/01/13 11:10:20;;;;;;;;;;;10.50;99.90;;;;;;5042284;28;20393;-62
2023/01/13 11:12:48;;;;;;;;;;;10.50;99.90;;;;;;5043171;28;19923;-63
2023/01/13 11:15:15;;;;;;;;;;;10.60;99.90;;;;;;5046549;28;19921;-62
2023/01/13 11:17:45;;;;;;;;;;;10.60;99.90;;;;;;5040058;28;19917;-63
2023/01/13 11:20:11;;;;;;;;;;;10.60;99.90;;;;;;5043763;28;20338;-63
2023/01/13 11:22:51;;;;;;;;;;;10.60;99.90;;;;;;5041737;28;19913;-62
2023/01/13 11:25:32;;;;;;;;;;;10.60;99.90;;;;;;5040842;28;20902;-62
2023/01/13 11:28:18;;;;;;;;;;;10.60;99.90;;;;;;5039857;28;20390;-62
2023/01/13 11:30:49;;;;;;;;;;;10.60;99.90;;;;;;5003714;28;19913;-64
2023/01/13 11:33:15;;;;;;;;;;;10.70;99.90;;;;;;5043412;28;20007;-63
2023/01/13 11:35:42;;;;;;;;;;;10.70;99.90;;;;;;5040447;28;20024;-63
2023/01/13 11:38:27;;;;;;;;;;;10.70;99.90;;;;;;5038802;28;19932;-63
2023/01/13 11:40:56;;;;;;;;;;;10.70;99.90;;;;;;5044161;28;19922;-64
2023/01/13 11:43:40;;;;;;;;;;;10.70;99.90;;;;;;5038489;28;19916;-63
2023/01/13 11:46:07;;;;;;;;;;;10.70;99.90;;;;;;5037325;28;19932;-61
2023/01/13 11:48:35;;;;;;;;;;;10.70;99.90;;;;;;5040868;28;20413;-60
2023/01/13 11:51:13;;;;;;;;;;;10.80;99.90;;;;;;5043407;28;19967;-60
2023/01/13 11:53:57;;;;;;;;;;;10.90;99.90;;;;;;5046939;28;19940;-62
2023/01/13 11:56:31;;;;;;;;;;;10.90;99.90;;;;;;5045884;28;20382;-62
2023/01/13 11:58:59;;;;;;;;;;;10.80;99.90;;;;;;5042277;28;20378;-62
2023/01/13 12:01:32;;;;;;;;;;;10.80;99.90;;;;;;5046173;28;19921;-63
2023/01/13 12:04:00;;;;;;;;;;;10.80;99.90;;;;;;5045537;28;19961;-62
2023/01/13 12:06:37;;;;;;;;;;;10.80;99.90;;;;;;5044986;28;20314;-60
2023/01/13 12:09:03;;;;;;;;;;;10.70;99.90;;;;;;5048006;28;19948;-62
2023/01/13 12:12:18;;;;;;;;;;;10.70;99.90;;;;;;5041891;28;19913;-62
2023/01/13 12:14:32;;;;;;;;;;;10.80;99.90;;;;;;5040506;28;19992;-61
2023/01/13 12:16:58;;;;;;;;;;;10.80;99.90;;;;;;5042606;28;19921;-61
2023/01/13 12:19:28;;;;;;;;;;;10.80;99.90;;;;;;5047056;28;19917;-62
2023/01/13 12:22:14;;;;;;;;;;;10.80;99.90;;;;;;5044336;28;20398;-62
2023/01/13 12:24:46;;;;;;;;;;;10.80;99.90;;;;;;5048406;28;19913;-63
2023/01/13 12:27:18;;;;;;;;;;;10.80;99.90;;;;;;5044615;28;19945;-62
2023/01/13 12:29:44;;;;;;;;;;;10.80;99.90;;;;;;5044992;28;20259;-62
2023/01/13 12:32:12;;;;;;;;;;;10.70;99.90;;;;;;5047310;28;19912;-63
2023/01/13 12:34:49;;;;;;;;;;;10.40;99.90;;;;;;5039292;28;19917;-64
2023/01/13 12:37:24;;;;;;;;;;;10.40;99.90;;;;;;5042602;28;19920;-61
2023/01/13 12:39:50;;;;;;;;;;;10.40;99.90;;;;;;5043510;28;19928;-63
2023/01/13 12:45:08;;;;;;;;;;;10.20;99.90;;;;;;5042883;28;19928;-62
2023/01/13 12:47:38;;;;;;;;;;;10.30;99.90;;;;;;5043045;28;19947;-63
2023/01/13 12:50:25;;;;;;;;;;;10.30;99.90;;;;;;5048700;28;19927;-63
2023/01/13 12:52:54;;;;;;;;;;;10.30;99.90;;;;;;5047092;28;20271;-62
2023/01/13 12:55:24;;;;;;;;;;;10.20;99.90;;;;;;5042193;28;20673;-63
2023/01/13 12:58:04;;;;;;;;;;;10.10;99.90;;;;;;5045773;28;19924;-63
2023/01/13 13:00:31;;;;;;;;;;;10.10;99.90;;;;;;5045138;28;19925;-62
2023/01/13 13:03:18;;;;;;;;;;;10.10;99.90;;;;;;5042652;28;20294;-63
2023/01/13 13:05:49;;;;;;;;;;;10.10;99.90;;;;;;5043949;28;19949;-63
2023/01/13 13:08:33;;;;;;;;;;;10.10;99.90;;;;;;5042547;28;20349;-60
2023/01/13 13:11:01;;;;;;;;;;;10.10;99.90;;;;;;5039659;28;19924;-63
2023/01/13 13:13:44;;;;;;;;;;;10.10;99.90;;;;;;5039263;28;20434;-62
2023/01/13 13:16:24;;;;;;;;;;;9.80;99.90;;;;;;5047575;28;19916;-62
2023/01/13 13:18:50;;;;;;;;;;;9.70;99.90;;;;;;5040581;28;19917;-62
2023/01/13 13:21:16;;;;;;;;;;;9.50;99.90;;;;;;5045717;28;20267;-61
2023/01/13 13:23:54;;;;;;;;;;;9.40;99.90;;;;;;5041862;28;19917;-61
2023/01/13 13:26:19;;;;;;;;;;;9.30;99.90;;;;;;5039714;28;19950;-60
2023/01/13 13:28:54;;;;;;;;;;;9.20;99.90;;;;;;5045926;28;19913;-63
2023/01/13 13:31:32;;;;;;;;;;;9.10;99.90;;;;;;5042598;28;19920;-63
2023/01/13 13:34:16;;;;;;;;;;;8.90;99.90;;;;;;5043165;28;19990;-62
2023/01/13 13:36:52;;;;;;;;;;;8.90;99.90;;;;;;5043286;28;20279;-62
2023/01/13 13:47:44;;;;;;;;;;;8.60;99.90;;;;;;5046351;28;19924;-63
2023/01/13 13:50:19;;;;;;;;;;;8.50;99.90;;;;;;5047821;28;19921;-63
2023/01/13 13:52:53;;;;;;;;;;;8.50;99.90;;;;;;5047479;28;20402;-61
2023/01/13 13:55:25;;;;;;;;;;;8.50;99.90;;;;;;5040091;28;19917;-63
2023/01/13 13:57:52;;;;;;;;;;;8.40;99.90;;;;;;5047250;28;19916;-63
2023/01/13 14:00:26;;;;;;;;;;;8.40;99.90;;;;;;5044283;28;20367;-61
2023/01/13 14:02:57;;;;;;;;;;;8.40;99.90;;;;;;5046376;28;19917;-63
2023/01/13 14:05:24;;;;;;;;;;;8.30;99.90;;;;;;5039060;28;19921;-63
2023/01/13 14:07:51;;;;;;;;;;;8.40;99.90;;;;;;5043466;28;20241;-63
2023/01/13 14:10:29;;;;;;;;;;;8.40;99.90;;;;;;5045363;28;19924;-62
2023/01/13 14:12:54;;;;;;;;;;;8.50;99.90;;;;;;5042113;28;19924;-62
2023/01/13 14:15:30;;;;;;;;;;;8.50;99.90;;;;;;5046433;28;20324;-62
2023/01/13 14:17:55;;;;;;;;;;;8.50;99.90;;;;;;5048712;28;19921;-63
2023/01/13 14:20:21;;;;;;;;;;;8.60;99.90;;;;;;5043295;28;20436;-62
2023/01/13 14:22:47;;;;;;;;;;;8.60;99.90;;;;;;5048058;28;19917;-63
2023/01/13 14:25:30;;;;;;;;;;;8.60;99.90;;;;;;5044382;28;19912;-63
2023/01/13 14:27:57;;;;;;;;;;;8.70;99.90;;;;;;5038493;28;20031;-63
2023/01/13 14:30:24;;;;;;;;;;;8.70;99.90;;;;;;5045186;28;19917;-63
2023/01/13 14:32:50;;;;;;;;;;;8.70;99.90;;;;;;5045012;28;19956;-63
2023/01/13 14:35:16;;;;;;;;;;;8.70;99.90;;;;;;5045301;28;20065;-63
2023/01/13 14:37:42;;;;;;;;;;;8.70;99.90;;;;;;5040275;28;19919;-63
2023/01/13 14:40:26;;;;;;;;;;;8.80;99.90;;;;;;5046237;28;19963;-64
2023/01/13 14:43:02;;;;;;;;;;;8.80;99.90;;;;;;5043818;28;19924;-59
2023/01/13 14:45:29;;;;;;;;;;;8.80;99.90;;;;;;5045077;28;19936;-60
2023/01/13 14:47:55;;;;;;;;;;;8.80;99.90;;;;;;5040918;28;20379;-63
2023/01/13 14:50:30;;;;;;;;;;;8.80;99.90;;;;;;5047432;28;19990;-62
2023/01/13 14:55:40;;;;;;;;;;;8.90;99.90;;;;;;5061819;28;19928;-60
2023/01/13 14:58:20;;;;;;;;;;;8.80;99.90;;;;;;5061104;28;20068;-56
2023/01/13 15:00:46;;;;;;;;;;;8.80;99.90;;;;;;5059091;28;19936;-57
2023/01/13 15:03:16;;;;;;;;;;;8.80;99.90;;;;;;5055583;28;20499;-58
2023/01/13 15:05:46;;;;;;;;;;;8.80;99.90;;;;;;5046692;28;19921;-58
2023/01/13 15:08:16;;;;;;;;;;;8.80;99.90;;;;;;5037528;28;20007;-58
2023/01/13 15:10:45;;;;;;;;;;;8.80;99.90;;;;;;5038861;28;19953;-56
2023/01/13 15:13:20;;;;;;;;;;;8.90;99.90;;;;;;5041846;28;20072;-58
2023/01/13 15:15:48;;;;;;;;;;;8.90;99.90;;;;;;5044491;28;19967;-58
2023/01/13 15:18:16;;;;;;;;;;;8.90;99.90;;;;;;5037656;28;19919;-57
2023/01/13 15:20:41;;;;;;;;;;;9.00;99.90;;;;;;5039723;28;19935;-58
2023/01/13 15:23:07;;;;;;;;;;;9.00;99.90;;;;;;5044508;28;20007;-61
2023/01/13 15:25:33;;;;;;;;;;;9.00;99.90;;;;;;5037279;28;20400;-58
2023/01/13 15:27:58;;;;;;;;;;;9.00;99.90;;;;;;5037035;28;19913;-57
2023/01/13 15:30:25;;;;;;;;;;;9.00;99.90;;;;;;5045217;28;19924;-59
2023/01/13 15:32:51;;;;;;;;;;;9.10;99.90;;;;;;5038144;28;20399;-60
2023/01/13 15:35:17;;;;;;;;;;;9.00;99.90;;;;;;5043251;28;19921;-60